createdAt,value
2016-08-21T00:00:21.404Z,90.92
2016-08-21T00:01:20.672Z,91.2
2016-08-21T00:02:21.338Z,90.82
2016-08-21T00:03:21.306Z,91.49
2016-08-21T00:04:21.270Z,91.02
2016-08-21T00:05:20.541Z,91.59
2016-08-21T00:06:21.203Z,91.11
2016-08-21T00:07:21.173Z,91.49
2016-08-21T00:08:20.440Z,91.39
2016-08-21T00:09:21.107Z,91.59
2016-08-21T00:10:21.070Z,91.59
2016-08-21T00:11:21.045Z,91.2
2016-08-21T00:12:21.007Z,91.3
2016-08-21T00:13:20.279Z,90.73
2016-08-21T00:14:20.245Z,91.2
2016-08-21T00:15:20.908Z,90.82
2016-08-21T00:16:20.183Z,90.16
2016-08-21T00:17:20.842Z,90.16
2016-08-21T00:18:20.118Z,89.96
2016-08-21T00:19:20.777Z,90.16
2016-08-21T00:20:20.051Z,90.73
2016-08-21T00:21:20.713Z,90.82
2016-08-21T00:22:19.984Z,90.44
2016-08-21T00:23:20.648Z,91.11
2016-08-21T00:24:20.615Z,91.2
2016-08-21T00:25:20.580Z,91.11
2016-08-21T00:26:20.549Z,90.92
2016-08-21T00:27:20.514Z,91.39
2016-08-21T00:28:20.498Z,91.11
2016-08-21T00:29:19.751Z,91.11
2016-08-21T00:30:20.415Z,91.02
2016-08-21T00:31:20.384Z,91.49
2016-08-21T00:32:20.350Z,91.49
2016-08-21T00:33:20.317Z,91.49
2016-08-21T00:34:20.287Z,91.39
2016-08-21T00:35:20.253Z,91.2
2016-08-21T00:36:19.526Z,91.11
2016-08-21T00:37:20.189Z,91.2
2016-08-21T00:38:20.153Z,91.02
2016-08-21T00:39:20.121Z,90.82
2016-08-21T00:40:20.083Z,91.02
2016-08-21T00:41:20.055Z,91.02
2016-08-21T00:42:19.327Z,91.3
2016-08-21T00:43:19.987Z,91.11
2016-08-21T00:44:19.957Z,91.2
2016-08-21T00:45:19.223Z,91.2
2016-08-21T00:46:19.895Z,91.68
2016-08-21T00:47:19.856Z,91.49
2016-08-21T00:48:19.823Z,91.78
2016-08-21T00:49:19.093Z,92.07
2016-08-21T00:50:19.758Z,91.39
2016-08-21T00:51:19.729Z,91.68
2016-08-21T00:52:19.687Z,91.49
2016-08-21T00:53:19.656Z,91.39
2016-08-21T00:54:19.624Z,91.78
2016-08-21T00:55:19.592Z,91.97
2016-08-21T00:56:18.862Z,91.97
2016-08-21T00:57:19.526Z,91.97
2016-08-21T00:58:19.493Z,91.59
2016-08-21T00:59:19.457Z,91.68
2016-08-21T01:00:19.426Z,91.78
2016-08-21T01:01:19.393Z,91.97
2016-08-21T01:02:19.362Z,91.88
2016-08-21T01:03:19.328Z,91.78
2016-08-21T01:04:19.297Z,91.59
2016-08-21T01:05:19.259Z,91.49
2016-08-21T01:06:19.228Z,91.59
2016-08-21T01:07:19.200Z,92.16
2016-08-21T01:08:19.164Z,91.78
2016-08-21T01:09:19.131Z,91.39
2016-08-21T01:10:19.100Z,91.68
2016-08-21T01:11:19.064Z,91.78
2016-08-21T01:12:18.337Z,91.39
2016-08-21T01:13:19.001Z,91.59
2016-08-21T01:14:18.270Z,91.59
2016-08-21T01:15:18.236Z,91.59
2016-08-21T01:16:18.901Z,91.78
2016-08-21T01:17:18.191Z,91.97
2016-08-21T01:18:18.142Z,91.59
2016-08-21T01:19:18.104Z,91.78
2016-08-21T01:20:18.773Z,91.59
2016-08-21T01:21:18.042Z,91.59
2016-08-21T01:22:18.006Z,91.78
2016-08-21T01:23:18.673Z,92.45
2016-08-21T01:24:18.639Z,92.35
2016-08-21T01:25:18.603Z,92.16
2016-08-21T01:26:18.570Z,91.78
2016-08-21T01:27:18.537Z,91.88
2016-08-21T01:28:18.507Z,91.78
2016-08-21T01:29:18.472Z,92.25
2016-08-21T01:30:17.744Z,92.74
2016-08-21T01:31:18.408Z,92.35
2016-08-21T01:32:18.374Z,92.93
2016-08-21T01:33:18.343Z,92.74
2016-08-21T01:34:18.309Z,92.93
2016-08-21T01:35:18.278Z,92.93
2016-08-21T01:36:18.251Z,92.64
2016-08-21T01:37:18.213Z,92.93
2016-08-21T01:38:18.178Z,92.93
2016-08-21T01:39:18.147Z,92.74
2016-08-21T01:40:18.113Z,93.69
2016-08-21T01:41:17.381Z,93.5
2016-08-21T01:42:17.349Z,93.5
2016-08-21T01:43:17.316Z,93.21
2016-08-21T01:44:17.980Z,93.79
2016-08-21T01:45:17.249Z,93.6
2016-08-21T01:46:17.916Z,93.5
2016-08-21T01:47:17.883Z,93.88
2016-08-21T01:48:17.848Z,93.79
2016-08-21T01:49:17.814Z,93.31
2016-08-21T01:50:17.083Z,93.79
2016-08-21T01:51:17.749Z,93.12
2016-08-21T01:52:17.019Z,93.12
2016-08-21T01:53:17.685Z,93.69
2016-08-21T01:54:16.952Z,93.79
2016-08-21T01:55:16.917Z,92.93
2016-08-21T01:56:17.581Z,93.02
2016-08-21T01:57:17.551Z,92.93
2016-08-21T01:58:17.517Z,93.4
2016-08-21T01:59:17.482Z,93.31
2016-08-21T02:00:17.451Z,93.5
2016-08-21T02:01:17.425Z,93.4
2016-08-21T02:02:17.391Z,93.31
2016-08-21T02:03:17.349Z,93.4
2016-08-21T02:04:17.318Z,93.6
2016-08-21T02:05:17.286Z,93.4
2016-08-21T02:06:17.250Z,93.69
2016-08-21T02:07:17.222Z,93.69
2016-08-21T02:08:16.489Z,93.69
2016-08-21T02:09:17.153Z,93.69
2016-08-21T02:10:17.119Z,93.69
2016-08-21T02:11:17.087Z,93.69
2016-08-21T02:12:17.049Z,93.5
2016-08-21T02:13:17.023Z,93.31
2016-08-21T02:14:16.984Z,93.31
2016-08-21T02:15:16.952Z,93.5
2016-08-21T02:16:16.919Z,93.5
2016-08-21T02:17:16.896Z,93.21
2016-08-21T02:18:16.161Z,93.5
2016-08-21T02:19:16.819Z,93.12
2016-08-21T02:20:16.092Z,93.88
2016-08-21T02:21:16.750Z,93.5
2016-08-21T02:22:16.718Z,93.69
2016-08-21T02:23:15.993Z,93.69
2016-08-21T02:24:16.657Z,93.31
2016-08-21T02:25:15.931Z,93.21
2016-08-21T02:26:16.588Z,93.6
2016-08-21T02:27:15.858Z,93.69
2016-08-21T02:28:16.523Z,93.69
2016-08-21T02:29:16.488Z,93.79
2016-08-21T02:30:16.455Z,93.79
2016-08-21T02:31:16.423Z,93.69
2016-08-21T02:32:16.388Z,93.65
2016-08-21T02:33:16.366Z,93.74
2016-08-21T02:34:16.322Z,93.55
2016-08-21T02:35:16.286Z,93.36
2016-08-21T02:36:15.561Z,93.36
2016-08-21T02:37:16.224Z,93.36
2016-08-21T02:38:16.193Z,93.36
2016-08-21T02:39:16.159Z,93.36
2016-08-21T02:40:16.124Z,93.55
2016-08-21T02:41:16.092Z,93.55
2016-08-21T02:42:16.056Z,93.45
2016-08-21T02:43:16.025Z,93.65
2016-08-21T02:44:15.987Z,93.65
2016-08-21T02:45:15.956Z,93.84
2016-08-21T02:46:15.924Z,94.02
2016-08-21T02:47:15.889Z,93.84
2016-08-21T02:48:15.858Z,94.22
2016-08-21T02:49:15.821Z,94.51
2016-08-21T02:50:15.092Z,94.31
2016-08-21T02:51:15.757Z,94.79
2016-08-21T02:52:15.075Z,95.51
2016-08-21T02:53:15.694Z,95.41
2016-08-21T02:54:15.656Z,95.51
2016-08-21T02:55:15.624Z,95.51
2016-08-21T02:56:15.589Z,95.51
2016-08-21T02:57:15.558Z,96.08
2016-08-21T02:58:15.523Z,96.08
2016-08-21T02:59:15.490Z,96.17
2016-08-21T03:00:15.458Z,96.08
2016-08-21T03:01:15.421Z,96.17
2016-08-21T03:02:15.388Z,95.79
2016-08-21T03:03:15.355Z,95.79
2016-08-21T03:04:15.320Z,96.27
2016-08-21T03:05:14.595Z,95.98
2016-08-21T03:06:14.556Z,95.98
2016-08-21T03:07:15.227Z,95.89
2016-08-21T03:08:15.184Z,96.08
2016-08-21T03:09:15.155Z,96.56
2016-08-21T03:10:15.120Z,96.7
2016-08-21T03:11:14.389Z,96.22
2016-08-21T03:12:15.048Z,96.32
2016-08-21T03:13:15.016Z,96.03
2016-08-21T03:14:14.985Z,96.22
2016-08-21T03:15:14.958Z,96.51
2016-08-21T03:16:14.917Z,96.13
2016-08-21T03:17:14.883Z,96.32
2016-08-21T03:18:14.152Z,96.98
2016-08-21T03:19:14.821Z,96.8
2016-08-21T03:20:14.785Z,96.51
2016-08-21T03:21:14.748Z,97.37
2016-08-21T03:22:14.728Z,96.89
2016-08-21T03:23:14.680Z,97.27
2016-08-21T03:24:14.646Z,97.08
2016-08-21T03:25:14.612Z,97.37
2016-08-21T03:26:13.879Z,97.18
2016-08-21T03:27:14.550Z,97.18
2016-08-21T03:28:14.510Z,97.08
2016-08-21T03:29:14.475Z,97.27
2016-08-21T03:30:14.445Z,97.18
2016-08-21T03:31:13.708Z,96.98
2016-08-21T03:32:14.373Z,96.98
2016-08-21T03:33:14.338Z,96.8
2016-08-21T03:34:14.309Z,97.08
2016-08-21T03:35:14.280Z,96.89
2016-08-21T03:36:14.251Z,97.08
2016-08-21T03:37:14.213Z,97.27
2016-08-21T03:38:14.171Z,97.27
2016-08-21T03:39:14.139Z,97.08
2016-08-21T03:40:14.101Z,96.89
2016-08-21T03:41:14.069Z,97.08
2016-08-21T03:42:14.035Z,97.27
2016-08-21T03:43:13.302Z,97.27
2016-08-21T03:44:13.966Z,96.7
2016-08-21T03:45:13.236Z,97.27
2016-08-21T03:46:13.899Z,97.32
2016-08-21T03:47:13.871Z,97.32
2016-08-21T03:48:13.835Z,97.32
2016-08-21T03:49:13.797Z,97.71
2016-08-21T03:50:13.761Z,97.42
2016-08-21T03:51:13.734Z,97.51
2016-08-21T03:52:13.696Z,97.71
2016-08-21T03:53:13.658Z,97.89
2016-08-21T03:54:13.623Z,97.71
2016-08-21T03:55:13.593Z,97.71
2016-08-21T03:56:13.553Z,97.8
2016-08-21T03:57:13.528Z,97.99
2016-08-21T03:58:13.487Z,97.89
2016-08-21T03:59:13.454Z,98.08
2016-08-21T04:00:13.420Z,98.37
2016-08-21T04:01:13.383Z,98.47
2016-08-21T04:02:13.355Z,98.27
2016-08-21T04:03:13.319Z,98.37
2016-08-21T04:04:13.286Z,98.47
2016-08-21T04:05:12.553Z,98.08
2016-08-21T04:06:13.216Z,98.27
2016-08-21T04:07:13.182Z,98.27
2016-08-21T04:08:13.147Z,98.18
2016-08-21T04:09:13.110Z,98.18
2016-08-21T04:10:12.383Z,98.37
2016-08-21T04:11:12.346Z,98.56
2016-08-21T04:12:12.312Z,98.66
2016-08-21T04:13:12.278Z,98.47
2016-08-21T04:14:12.943Z,98.85
2016-08-21T04:15:12.907Z,98.85
2016-08-21T04:16:12.174Z,98.94
2016-08-21T04:17:12.836Z,98.56
2016-08-21T04:18:12.805Z,98.56
2016-08-21T04:19:12.069Z,98.66
2016-08-21T04:20:12.037Z,98.75
2016-08-21T04:21:12.699Z,98.56
2016-08-21T04:22:12.662Z,99.04
2016-08-21T04:23:11.935Z,99.13
2016-08-21T04:24:12.595Z,99.42
2016-08-21T04:25:11.865Z,99.32
2016-08-21T04:26:12.531Z,99.04
2016-08-21T04:27:12.498Z,99.27
2016-08-21T04:28:12.459Z,99.32
2016-08-21T04:29:12.424Z,99.99
2016-08-21T04:30:11.694Z,99.61
2016-08-21T04:31:12.354Z,99.99
2016-08-21T04:32:11.631Z,99.99
2016-08-21T04:33:12.284Z,99.8
2016-08-21T04:34:11.558Z,99.42
2016-08-21T04:35:12.222Z,99.13
2016-08-21T04:36:12.184Z,99.8
2016-08-21T04:37:12.151Z,99.8
2016-08-21T04:38:12.118Z,99.99
2016-08-21T04:39:11.389Z,99.71
2016-08-21T04:40:12.047Z,99.99
2016-08-21T04:41:12.016Z,99.99
2016-08-21T04:42:11.982Z,99.99
2016-08-21T04:43:11.948Z,99.99
2016-08-21T04:44:11.914Z,99.99
2016-08-21T04:45:11.877Z,99.99
2016-08-21T04:46:11.844Z,99.76
2016-08-21T04:47:11.819Z,99.99
2016-08-21T04:48:11.077Z,99.66
2016-08-21T04:49:11.742Z,99.47
2016-08-21T04:50:11.708Z,99.99
2016-08-21T04:51:11.674Z,99.99
2016-08-21T04:52:11.638Z,99.99
2016-08-21T04:53:10.911Z,99.85
2016-08-21T04:54:11.578Z,99.85
2016-08-21T04:55:11.540Z,99.85
2016-08-21T04:56:11.504Z,99.95
2016-08-21T04:57:10.771Z,99.76
2016-08-21T04:58:11.438Z,99.99
2016-08-21T04:59:11.400Z,99.66
2016-08-21T05:00:11.376Z,99.99
2016-08-21T05:01:10.638Z,99.99
2016-08-21T05:02:11.301Z,99.52
2016-08-21T05:03:11.269Z,99.04
2016-08-21T05:04:11.230Z,99.23
2016-08-21T05:05:11.197Z,99.43
2016-08-21T05:06:10.473Z,99.52
2016-08-21T05:07:11.129Z,99.43
2016-08-21T05:08:11.104Z,99.52
2016-08-21T05:09:11.064Z,99.71
2016-08-21T05:10:11.030Z,99.14
2016-08-21T05:11:10.996Z,98.94
2016-08-21T05:12:10.965Z,99.23
2016-08-21T05:13:10.931Z,98.75
2016-08-21T05:14:10.894Z,98.75
2016-08-21T05:15:10.872Z,98.94
2016-08-21T05:16:10.131Z,98.85
2016-08-21T05:17:10.793Z,98.57
2016-08-21T05:18:10.760Z,98.57
2016-08-21T05:19:10.029Z,98.23
2016-08-21T05:20:09.997Z,98.13
2016-08-21T05:21:10.658Z,98.42
2016-08-21T05:22:10.625Z,98.42
2016-08-21T05:23:10.595Z,98.61
2016-08-21T05:24:10.555Z,97.66
2016-08-21T05:25:10.525Z,97.94
2016-08-21T05:26:10.491Z,97.47
2016-08-21T05:27:10.463Z,97.66
2016-08-21T05:28:10.424Z,97.85
2016-08-21T05:29:10.391Z,96.99
2016-08-21T05:30:10.361Z,97.08
2016-08-21T05:31:09.627Z,97.47
2016-08-21T05:32:09.595Z,97.28
2016-08-21T05:33:10.255Z,97.18
2016-08-21T05:34:10.224Z,96.89
2016-08-21T05:35:10.196Z,97.18
2016-08-21T05:36:10.160Z,96.89
2016-08-21T05:37:10.124Z,96.51
2016-08-21T05:38:10.093Z,96.42
2016-08-21T05:39:09.367Z,96.51
2016-08-21T05:40:09.326Z,96.51
2016-08-21T05:41:09.990Z,96.42
2016-08-21T05:42:09.953Z,96.61
2016-08-21T05:43:09.927Z,96.32
2016-08-21T05:44:09.891Z,96.42
2016-08-21T05:45:09.863Z,96.22
2016-08-21T05:46:09.822Z,96.42
2016-08-21T05:47:09.788Z,96.51
2016-08-21T05:48:09.760Z,96.32
2016-08-21T05:49:09.726Z,96.51
2016-08-21T05:50:09.690Z,96.7
2016-08-21T05:51:08.962Z,96.7
2016-08-21T05:52:09.627Z,96.32
2016-08-21T05:53:09.591Z,96.61
2016-08-21T05:54:09.558Z,95.75
2016-08-21T05:55:09.525Z,96.03
2016-08-21T05:56:08.797Z,96.47
2016-08-21T05:57:09.459Z,95.94
2016-08-21T05:58:09.428Z,96.08
2016-08-21T05:59:09.392Z,96.08
2016-08-21T06:00:08.664Z,96.18
2016-08-21T06:01:08.629Z,96.08
2016-08-21T06:02:09.298Z,96.18
2016-08-21T06:03:09.269Z,95.7
2016-08-21T06:04:09.226Z,95.7
2016-08-21T06:05:09.198Z,95.7
2016-08-21T06:06:08.463Z,95.7
2016-08-21T06:07:08.431Z,95.61
2016-08-21T06:08:09.093Z,95.41
2016-08-21T06:09:09.062Z,95.61
2016-08-21T06:10:09.028Z,95.51
2016-08-21T06:11:08.303Z,95.12
2016-08-21T06:12:08.265Z,95.51
2016-08-21T06:13:08.235Z,95.12
2016-08-21T06:14:08.896Z,95.41
2016-08-21T06:15:08.862Z,95.51
2016-08-21T06:16:08.833Z,95.22
2016-08-21T06:17:08.805Z,95.22
2016-08-21T06:18:08.067Z,94.65
2016-08-21T06:19:08.034Z,94.31
2016-08-21T06:20:08.701Z,94.7
2016-08-21T06:21:08.671Z,94.31
2016-08-21T06:22:08.630Z,93.93
2016-08-21T06:23:07.904Z,93.84
2016-08-21T06:24:07.872Z,93.64
2016-08-21T06:25:07.842Z,93.26
2016-08-21T06:26:08.501Z,93.74
2016-08-21T06:27:08.469Z,92.83
2016-08-21T06:28:07.741Z,93.02
2016-08-21T06:29:08.406Z,92.54
2016-08-21T06:30:07.676Z,92.63
2016-08-21T06:31:08.343Z,92.44
2016-08-21T06:32:07.610Z,92.54
2016-08-21T06:33:08.279Z,92.63
2016-08-21T06:34:07.545Z,92.63
2016-08-21T06:35:08.213Z,92.16
2016-08-21T06:36:07.482Z,92.16
2016-08-21T06:37:08.145Z,93.02
2016-08-21T06:38:08.115Z,92.92
2016-08-21T06:39:08.080Z,92.83
2016-08-21T06:40:07.350Z,93.12
2016-08-21T06:41:08.017Z,93.12
2016-08-21T06:42:07.984Z,92.83
2016-08-21T06:43:07.952Z,92.35
2016-08-21T06:44:07.919Z,92.73
2016-08-21T06:45:07.889Z,92.44
2016-08-21T06:46:07.854Z,92.35
2016-08-21T06:47:07.821Z,91.82
2016-08-21T06:48:07.090Z,91.44
2016-08-21T06:49:07.061Z,91.63
2016-08-21T06:50:07.726Z,91.15
2016-08-21T06:51:07.694Z,91.39
2016-08-21T06:52:07.663Z,90.62
2016-08-21T06:53:07.632Z,89.95
2016-08-21T06:54:07.593Z,89.76
2016-08-21T06:55:07.569Z,89.76
2016-08-21T06:56:07.530Z,89.86
2016-08-21T06:57:07.501Z,89.66
2016-08-21T06:58:07.473Z,89.57
2016-08-21T06:59:07.437Z,89.66
2016-08-21T07:00:07.418Z,89.66
2016-08-21T07:01:07.375Z,89.57
2016-08-21T07:02:06.645Z,89.57
2016-08-21T07:03:07.310Z,89.57
2016-08-21T07:04:07.295Z,89.86
2016-08-21T07:05:07.247Z,89.86
2016-08-21T07:06:07.217Z,89.95
2016-08-21T07:07:07.192Z,89.57
2016-08-21T07:08:07.156Z,89.09
2016-08-21T07:09:07.125Z,89.47
2016-08-21T07:10:07.088Z,89.18
2016-08-21T07:11:07.061Z,88.8
2016-08-21T07:12:07.029Z,88.9
2016-08-21T07:13:06.301Z,89.18
2016-08-21T07:14:06.971Z,89.18
2016-08-21T07:15:06.932Z,88.9
2016-08-21T07:16:06.899Z,88.51
2016-08-21T07:17:06.869Z,88.61
2016-08-21T07:18:06.846Z,88.42
2016-08-21T07:19:06.115Z,88.61
2016-08-21T07:20:06.778Z,88.42
2016-08-21T07:21:06.741Z,88.13
2016-08-21T07:22:06.710Z,88.32
2016-08-21T07:23:06.676Z,88.42
2016-08-21T07:24:06.649Z,88.32
2016-08-21T07:25:06.616Z,88.42
2016-08-21T07:26:06.582Z,87.94
2016-08-21T07:27:06.552Z,88.32
2016-08-21T07:28:05.821Z,88.7
2016-08-21T07:29:06.487Z,88.51
2016-08-21T07:30:06.456Z,88.23
2016-08-21T07:31:06.425Z,88.03
2016-08-21T07:32:05.708Z,87.94
2016-08-21T07:33:06.361Z,88.13
2016-08-21T07:34:06.331Z,87.65
2016-08-21T07:35:06.300Z,87.79
2016-08-21T07:36:06.271Z,88.08
2016-08-21T07:37:06.234Z,87.21
2016-08-21T07:38:06.204Z,86.93
2016-08-21T07:39:05.475Z,86.93
2016-08-21T07:40:05.444Z,86.74
2016-08-21T07:41:05.415Z,86.4
2016-08-21T07:42:05.382Z,86.21
2016-08-21T07:43:06.054Z,85.72
2016-08-21T07:44:06.217Z,85.25
2016-08-21T07:45:05.989Z,85.05
2016-08-21T07:46:05.257Z,85.25
2016-08-21T07:47:05.921Z,84.86
2016-08-21T07:48:05.195Z,84.86
2016-08-21T07:49:05.860Z,83.81
2016-08-21T07:50:05.132Z,84.04
2016-08-21T07:51:05.799Z,83.56
2016-08-21T07:52:05.780Z,83.27
2016-08-21T07:53:05.735Z,83.37
2016-08-21T07:54:05.706Z,83.18
2016-08-21T07:55:05.681Z,83.37
2016-08-21T07:56:05.645Z,83.27
2016-08-21T07:57:05.613Z,82.89
2016-08-21T07:58:04.887Z,82.6
2016-08-21T07:59:05.551Z,82.6
2016-08-21T08:00:04.829Z,82.6
2016-08-21T08:01:05.491Z,81.84
2016-08-21T08:02:05.457Z,82.16
2016-08-21T08:03:04.732Z,81.74
2016-08-21T08:04:05.399Z,81.97
2016-08-21T08:05:04.671Z,80.97
2016-08-21T08:06:05.334Z,81.2
2016-08-21T08:07:05.307Z,80.73
2016-08-21T08:08:05.275Z,81.1
2016-08-21T08:09:05.243Z,80.82
2016-08-21T08:10:05.215Z,80.73
2016-08-21T08:11:05.187Z,80.82
2016-08-21T08:12:05.156Z,80.34
2016-08-21T08:13:05.121Z,80.15
2016-08-21T08:14:05.092Z,79.76
2016-08-21T08:15:05.062Z,79.22
2016-08-21T08:16:05.033Z,78.55
2016-08-21T08:17:04.303Z,78.36
2016-08-21T08:18:04.978Z,77.73
2016-08-21T08:19:04.248Z,77.06
2016-08-21T08:20:04.912Z,76.48
2016-08-21T08:21:04.184Z,76.39
2016-08-21T08:22:04.850Z,76.29
2016-08-21T08:23:04.820Z,75.75
2016-08-21T08:24:04.791Z,75.65
2016-08-21T08:25:04.064Z,75.56
2016-08-21T08:26:04.728Z,75.37
2016-08-21T08:27:04.004Z,75.65
2016-08-21T08:28:04.671Z,75.75
2016-08-21T08:29:04.642Z,75.94
2016-08-21T08:30:04.611Z,75.56
2016-08-21T08:31:04.582Z,74.88
2016-08-21T08:32:04.550Z,75.07
2016-08-21T08:33:04.527Z,74.98
2016-08-21T08:34:03.817Z,74.55
2016-08-21T08:35:04.463Z,74.75
2016-08-21T08:36:04.434Z,74.65
2016-08-21T08:37:04.401Z,74.88
2016-08-21T08:38:04.374Z,74.69
2016-08-21T08:39:04.351Z,74.21
2016-08-21T08:40:04.319Z,73.6
2016-08-21T08:41:04.283Z,73.83
2016-08-21T08:42:03.558Z,73.44
2016-08-21T08:43:04.228Z,73.63
2016-08-21T08:44:04.196Z,72.86
2016-08-21T08:45:04.168Z,72.13
2016-08-21T08:46:04.139Z,70.78
2016-08-21T08:47:03.416Z,69.95
2016-08-21T08:48:04.077Z,69.18
2016-08-21T08:49:04.049Z,68.8
2016-08-21T08:50:04.021Z,68.16
2016-08-21T08:51:03.297Z,66.75
2016-08-21T08:52:03.964Z,65.4
2016-08-21T08:53:03.240Z,63.63
2016-08-21T08:54:03.907Z,62.44
2016-08-21T08:55:03.878Z,61.38
2016-08-21T08:56:03.851Z,61.28
2016-08-21T08:57:03.818Z,60.93
2016-08-21T08:58:03.097Z,59.96
2016-08-21T08:59:03.763Z,59.67
2016-08-21T09:00:03.750Z,60.22
2016-08-21T09:01:03.710Z,60.38
2016-08-21T09:02:03.688Z,60.48
2016-08-21T09:03:02.960Z,60.58
2016-08-21T09:04:02.940Z,60.64
2016-08-21T09:05:03.619Z,60.93
2016-08-21T09:06:03.568Z,60.55
2016-08-21T09:07:03.545Z,60.55
2016-08-21T09:08:03.530Z,60.26
2016-08-21T09:09:02.791Z,59.97
2016-08-21T09:10:03.463Z,58.94
2016-08-21T09:11:03.433Z,58.68
2016-08-21T09:12:03.405Z,57.42
2016-08-21T09:13:03.378Z,56.2
2016-08-21T09:14:03.349Z,53.93
2016-08-21T09:15:03.330Z,50.33
2016-08-21T09:16:03.297Z,47.11
2016-08-21T09:17:03.269Z,45.07
2016-08-21T09:18:02.551Z,44.14
2016-08-21T09:19:03.219Z,42.6
2016-08-21T09:20:02.502Z,42.02
2016-08-21T09:21:02.471Z,40.39
2016-08-21T09:22:03.148Z,40.11
2016-08-21T09:23:02.421Z,40.31
2016-08-21T09:24:03.094Z,40.56
2016-08-21T09:25:02.371Z,40.56
2016-08-21T09:26:03.050Z,39.51
2016-08-21T09:27:03.023Z,40.17
2016-08-21T09:28:02.297Z,39.39
2016-08-21T09:29:02.970Z,39.1
2016-08-21T09:30:02.950Z,39.59
2016-08-21T09:31:02.226Z,40.06
2016-08-21T09:32:02.899Z,41.1
2016-08-21T09:33:02.975Z,41.86
2016-08-21T09:34:02.858Z,42.99
2016-08-21T09:35:02.833Z,43.74
2016-08-21T09:36:02.802Z,44.59
2016-08-21T09:37:02.780Z,44.96
2016-08-21T09:38:02.750Z,45.15
2016-08-21T09:39:02.031Z,45.22
2016-08-21T09:40:02.702Z,45.61
2016-08-21T09:41:02.681Z,45.42
2016-08-21T09:42:02.654Z,45.61
2016-08-21T09:43:02.630Z,45.13
2016-08-21T09:44:02.624Z,45.22
2016-08-21T09:45:02.584Z,45.98
2016-08-21T09:46:01.863Z,46.26
2016-08-21T09:47:02.524Z,47.02
2016-08-21T09:48:02.504Z,48.08
2016-08-21T09:49:02.476Z,48.16
2016-08-21T09:50:02.450Z,48.25
2016-08-21T09:51:01.732Z,48.64
2016-08-21T09:52:01.703Z,49.02
2016-08-21T09:53:01.686Z,49.22
2016-08-21T09:54:02.351Z,48.61
2016-08-21T09:55:02.326Z,48.54
2016-08-21T09:56:02.304Z,47.86
2016-08-21T09:57:01.578Z,47.38
2016-08-21T09:58:02.246Z,47.41
2016-08-21T09:59:02.220Z,47.99
2016-08-21T10:00:02.193Z,47.79
2016-08-21T10:01:02.170Z,48.37
2016-08-21T10:02:02.141Z,49.12
2016-08-21T10:03:02.119Z,49.22
2016-08-21T10:04:02.092Z,49.41
2016-08-21T10:05:02.070Z,48.93
2016-08-21T10:06:02.038Z,49.41
2016-08-21T10:07:02.024Z,49.51
2016-08-21T10:08:01.987Z,49.51
2016-08-21T10:09:01.959Z,49.22
2016-08-21T10:10:01.938Z,49.32
2016-08-21T10:11:01.209Z,49.41
2016-08-21T10:12:01.881Z,48.71
2016-08-21T10:13:01.860Z,46.63
2016-08-21T10:14:01.133Z,44.81
2016-08-21T10:15:01.802Z,43.58
2016-08-21T10:16:01.773Z,41.16
2016-08-21T10:17:01.750Z,39.65
2016-08-21T10:18:01.728Z,37.86
2016-08-21T10:19:01.701Z,36.32
2016-08-21T10:20:01.687Z,34.52
2016-08-21T10:21:01.649Z,34.74
2016-08-21T10:22:00.928Z,35.31
2016-08-21T10:23:01.599Z,35.19
2016-08-21T10:24:01.577Z,35.68
2016-08-21T10:25:01.548Z,36.24
2016-08-21T10:26:01.524Z,36.79
2016-08-21T10:27:01.507Z,37.08
2016-08-21T10:28:00.779Z,36.95
2016-08-21T10:29:01.451Z,36.18
2016-08-21T10:30:01.428Z,34.08
2016-08-21T10:31:00.703Z,33.33
2016-08-21T10:32:01.378Z,32.68
2016-08-21T10:33:01.349Z,32.49
2016-08-21T10:34:00.632Z,32.6
2016-08-21T10:35:01.305Z,32.62
2016-08-21T10:36:01.279Z,32.81
2016-08-21T10:37:01.254Z,32.81
2016-08-21T10:38:01.231Z,32.62
2016-08-21T10:39:01.206Z,32.11
2016-08-21T10:40:00.492Z,32.02
2016-08-21T10:41:01.159Z,32.59
2016-08-21T10:42:01.134Z,32.87
2016-08-21T10:43:01.114Z,32.86
2016-08-21T10:44:01.088Z,32.86
2016-08-21T10:45:00.368Z,32.47
2016-08-21T10:46:00.348Z,32.67
2016-08-21T10:47:01.015Z,33.04
2016-08-21T10:48:00.295Z,32.65
2016-08-21T10:49:00.281Z,31.58
2016-08-21T10:50:00.945Z,30.54
2016-08-21T10:51:00.919Z,29.03
2016-08-21T10:52:00.211Z,27.12
2016-08-21T10:53:00.177Z,26.07
2016-08-21T10:54:00.154Z,25.04
2016-08-21T10:55:00.131Z,24.16
2016-08-21T10:56:00.107Z,23.32
2016-08-21T10:57:00.781Z,21.58
2016-08-21T10:58:00.758Z,19.45
2016-08-21T10:59:00.739Z,19.07
2016-08-21T11:00:00.714Z,18.21
2016-08-21T11:01:00.710Z,17.93
2016-08-21T11:02:00.675Z,17.64
2016-08-21T11:03:00.651Z,16.77
2016-08-21T11:04:00.636Z,16.38
2016-08-21T11:05:00.613Z,15.89
2016-08-21T11:06:00.594Z,15.7
2016-08-21T11:06:59.873Z,15.21
2016-08-21T11:07:59.876Z,15.31
2016-08-21T11:09:00.531Z,15.3
2016-08-21T11:09:59.820Z,15.5
2016-08-21T11:11:00.494Z,15.69
2016-08-21T11:11:59.774Z,15.78
2016-08-21T11:13:00.453Z,16.55
2016-08-21T11:14:00.434Z,17.04
2016-08-21T11:15:00.421Z,16.73
2016-08-21T11:15:59.703Z,17.71
2016-08-21T11:17:00.375Z,18.19
2016-08-21T11:18:00.357Z,18.96
2016-08-21T11:19:00.350Z,19.44
2016-08-21T11:20:00.313Z,19.82
2016-08-21T11:21:00.297Z,20.01
2016-08-21T11:22:00.274Z,20.78
2016-08-21T11:23:00.258Z,20.97
2016-08-21T11:24:00.234Z,21.64
2016-08-21T11:25:00.207Z,22.22
2016-08-21T11:25:59.497Z,22.99
2016-08-21T11:27:00.169Z,23.57
2016-08-21T11:27:59.455Z,24.53
2016-08-21T11:29:00.134Z,25.2
2016-08-21T11:30:00.107Z,26.14
2016-08-21T11:31:00.088Z,26.52
2016-08-21T11:32:00.063Z,27.29
2016-08-21T11:33:00.043Z,28.05
2016-08-21T11:34:00.026Z,29.11
2016-08-21T11:35:00.002Z,29.57
2016-08-21T11:35:59.974Z,30.25
2016-08-21T11:36:59.953Z,31.01
2016-08-21T11:37:59.230Z,31.77
2016-08-21T11:38:59.908Z,32.55
2016-08-21T11:39:59.198Z,33.11
2016-08-21T11:40:59.862Z,33.2
2016-08-21T11:41:59.834Z,33.57
2016-08-21T11:42:59.812Z,33.84
2016-08-21T11:43:59.782Z,33.92
2016-08-21T11:44:59.068Z,34.61
2016-08-21T11:45:59.040Z,34.89
2016-08-21T11:46:59.714Z,35.07
2016-08-21T11:47:59.686Z,35.56
2016-08-21T11:48:58.965Z,35.85
2016-08-21T11:49:59.635Z,35.94
2016-08-21T11:50:59.613Z,36.82
2016-08-21T11:51:59.588Z,36.93
2016-08-21T11:52:59.564Z,36.93
2016-08-21T11:53:58.839Z,36.52
2016-08-21T11:54:58.819Z,37.11
2016-08-21T11:55:58.797Z,37.4
2016-08-21T11:56:59.459Z,38.15
2016-08-21T11:57:58.734Z,38.64
2016-08-21T11:58:59.409Z,38.54
2016-08-21T11:59:59.383Z,39.59
2016-08-21T12:00:59.356Z,40.26
2016-08-21T12:01:59.348Z,40.83
2016-08-21T12:02:59.306Z,41.41
2016-08-21T12:03:59.280Z,41.79
2016-08-21T12:04:59.249Z,41.7
2016-08-21T12:05:59.235Z,41.7
2016-08-21T12:06:58.508Z,41.11
2016-08-21T12:07:59.179Z,41.09
2016-08-21T12:08:59.144Z,40.63
2016-08-21T12:09:59.124Z,40.83
2016-08-21T12:10:59.098Z,39.67
2016-08-21T12:11:59.072Z,39.28
2016-08-21T12:12:59.048Z,39.39
2016-08-21T12:13:58.323Z,39.2
2016-08-21T12:14:58.988Z,39.49
2016-08-21T12:15:58.970Z,39.29
2016-08-21T12:16:58.938Z,38.54
2016-08-21T12:17:58.913Z,38.83
2016-08-21T12:18:58.885Z,38.06
2016-08-21T12:19:58.163Z,37.38
2016-08-21T12:20:58.831Z,37.3
2016-08-21T12:21:58.110Z,37.11
2016-08-21T12:22:58.782Z,36.72
2016-08-21T12:23:58.057Z,35.96
2016-08-21T12:24:58.033Z,34.51
2016-08-21T12:25:58.702Z,34.61
2016-08-21T12:26:58.677Z,34.61
2016-08-21T12:27:58.651Z,34.3
2016-08-21T12:28:58.629Z,34.69
2016-08-21T12:29:57.900Z,34.97
2016-08-21T12:30:57.876Z,35.94
2016-08-21T12:31:58.547Z,35.94
2016-08-21T12:32:58.519Z,35.36
2016-08-21T12:33:58.500Z,35.27
2016-08-21T12:34:58.466Z,35.17
2016-08-21T12:35:58.440Z,35.07
2016-08-21T12:36:58.416Z,35.17
2016-08-21T12:37:58.390Z,34.97
2016-08-21T12:38:58.363Z,35.15
2016-08-21T12:39:58.340Z,35.73
2016-08-21T12:40:58.313Z,36.14
2016-08-21T12:41:58.286Z,36.02
2016-08-21T12:42:58.258Z,35.93
2016-08-21T12:43:58.235Z,36.02
2016-08-21T12:44:57.515Z,35.54
2016-08-21T12:45:58.182Z,35.64
2016-08-21T12:46:58.158Z,35.25
2016-08-21T12:47:58.128Z,35.35
2016-08-21T12:48:58.104Z,35.35
2016-08-21T12:49:58.080Z,35.64
2016-08-21T12:50:57.357Z,35.15
2016-08-21T12:51:58.027Z,34.28
2016-08-21T12:52:57.303Z,34.28
2016-08-21T12:53:57.286Z,34.38